Time;durP1;ratioP1;P1;durP2;ratioP2;P2;SDS_P1;SDS_P2;PMS_P1;PMS_P2;Temp;Humidity;BMP_temperature;BMP_pressure;BME280_temperature;BME280_humidity;BME280_pressure;Samples;Min_cycle;Max_cycle;Signal;HPM_P1;HPM_P2
2023/01/29 00:01:38;;;;;;;16.77;15.10;;;;;;;-0.71;100.00;92786.22;4953364;29;20300;-73
2023/01/29 00:04:03;;;;;;;17.30;15.60;;;;;;;-0.68;100.00;92810.63;4951754;29;20232;-73
2023/01/29 00:06:29;;;;;;;13.70;12.17;;;;;;;-0.62;99.50;92813.16;4937132;29;20217;-73
2023/01/29 00:08:55;;;;;;;13.87;12.80;;;;;;;-0.73;98.40;92800.22;4952648;29;20221;-73
2023/01/29 00:11:22;;;;;;;14.23;13.03;;;;;;;-0.64;97.39;92811.81;4953001;29;20192;-73
2023/01/29 00:13:48;;;;;;;13.20;12.20;;;;;;;-0.77;97.42;92799.06;4952674;29;20372;-73
2023/01/29 00:16:14;;;;;;;14.10;12.83;;;;;;;-0.72;98.22;92823.09;4952952;29;20190;-74
2023/01/29 00:18:40;;;;;;;14.90;13.83;;;;;;;-0.87;99.72;92821.78;4952687;29;20254;-71
2023/01/29 00:21:14;;;;;;;14.07;12.77;;;;;;;-1.26;100.00;92774.06;4953008;29;20186;-72
2023/01/29 00:23:40;;;;;;;13.07;11.87;;;;;;;-0.88;100.00;92820.19;4951392;29;20243;-73
2023/01/29 00:26:06;;;;;;;14.67;13.40;;;;;;;-0.96;100.00;92813.53;4952592;29;20205;-73
2023/01/29 00:28:32;;;;;;;13.83;12.83;;;;;;;-0.89;100.00;92822.00;4952414;29;20264;-73
2023/01/29 00:30:57;;;;;;;14.40;13.30;;;;;;;-0.98;100.00;92827.56;4952774;29;20205;-72
2023/01/29 00:33:22;;;;;;;13.50;12.17;;;;;;;-1.03;100.00;92819.69;4952147;29;20232;-73
2023/01/29 00:35:48;;;;;;;13.47;12.30;;;;;;;-1.20;100.00;92792.97;4952685;29;20201;-73
2023/01/29 00:38:13;;;;;;;14.93;13.53;;;;;;;-1.02;100.00;92821.25;4952077;29;20248;-74
2023/01/29 00:46:09;;;;;;;12.97;11.90;;;;;;;-1.00;100.00;92817.50;4952857;29;20255;-73
2023/01/29 00:48:34;;;;;;;13.37;12.37;;;;;;;-1.12;100.00;92810.66;4951831;29;20229;-72
2023/01/29 00:51:01;;;;;;;16.13;14.73;;;;;;;-1.39;100.00;92788.69;4952619;29;20189;-73
2023/01/29 00:53:28;;;;;;;15.10;13.70;;;;;;;-1.13;100.00;92820.13;4951624;29;20233;-73
2023/01/29 00:55:53;;;;;;;14.33;12.93;;;;;;;-1.26;100.00;92807.34;4952527;29;20198;-72
2023/01/29 00:58:21;;;;;;;14.30;13.10;;;;;;;-1.25;100.00;92803.03;4951428;29;20288;-73
2023/01/29 01:00:48;;;;;;;14.53;13.20;;;;;;;-1.17;100.00;92826.66;4952538;29;20814;-73
2023/01/29 01:03:13;;;;;;;13.47;12.27;;;;;;;-1.17;100.00;92823.28;4951334;29;20244;-72
2023/01/29 01:05:39;;;;;;;14.13;13.03;;;;;;;-1.29;100.00;92810.31;4951866;29;20220;-72
2023/01/29 01:10:19;;;;;;;14.63;13.33;;;;;;;-1.21;100.00;92822.91;4951151;29;20237;-74
2023/01/29 01:10:58;;;;;;;13.77;12.67;;;;;;;-1.22;100.00;92810.31;4950948;29;20221;-74
2023/01/29 01:13:24;;;;;;;14.63;13.27;;;;;;;-1.29;100.00;92822.34;4951394;29;20237;-73
2023/01/29 01:15:49;;;;;;;14.57;13.27;;;;;;;-1.25;100.00;92815.81;4951809;29;20220;-72
2023/01/29 01:18:15;;;;;;;14.97;13.67;;;;;;;-1.36;100.00;92801.88;4950349;29;20243;-72
2023/01/29 01:20:40;;;;;;;14.67;13.53;;;;;;;-1.23;100.00;92826.66;4951641;29;20213;-72
2023/01/29 01:23:05;;;;;;;13.00;11.90;;;;;;;-1.22;100.00;92812.84;4951454;29;20229;-72
2023/01/29 01:25:31;;;;;;;13.53;12.50;;;;;;;-1.37;100.00;92795.19;4934691;29;20227;-72
2023/01/29 01:27:58;;;;;;;14.47;13.00;;;;;;;-1.29;100.00;92815.44;4966152;29;20188;-73
2023/01/29 01:30:24;;;;;;;14.60;13.23;;;;;;;-1.25;100.00;92813.28;4951805;29;20250;-72
2023/01/29 01:32:50;;;;;;;15.80;14.43;;;;;;;-1.37;100.00;92796.97;4950931;29;20193;-73
2023/01/29 01:35:15;;;;;;;16.80;13.87;;;;;;;-1.12;100.00;92820.91;4951567;29;20186;-72
2023/01/29 01:37:41;;;;;;;13.87;12.67;;;;;;;-1.22;100.00;92815.41;4950894;29;20193;-75
2023/01/29 01:40:21;;;;;;;14.57;13.30;;;;;;;-1.32;100.00;92822.75;4951449;29;20189;-75
2023/01/29 01:42:56;;;;;;;14.97;13.57;;;;;;;-1.27;100.00;92826.28;4951107;29;20189;-75
2023/01/29 01:45:21;;;;;;;14.67;13.50;;;;;;;-1.24;100.00;92822.50;4949526;29;20220;-76
2023/01/29 01:47:51;;;;;;;15.57;14.17;;;;;;;-1.34;100.00;92801.69;4951350;29;20252;-76
2023/01/29 01:50:28;;;;;;;14.93;13.73;;;;;;;-1.23;100.00;92818.97;4951980;29;20729;-76
2023/01/29 01:53:01;;;;;;;14.77;13.60;;;;;;;-1.31;100.00;92821.75;4951013;29;20247;-75
2023/01/29 01:55:29;;;;;;;13.57;12.37;;;;;;;-1.28;100.00;92823.91;4951526;29;20189;-76
2023/01/29 01:58:02;;;;;;;15.47;14.23;;;;;;;-1.28;100.00;92836.72;4950358;29;20200;-75
2023/01/29 02:00:27;;;;;;;13.77;12.57;;;;;;;-1.27;100.00;92820.34;4951787;29;20201;-76
2023/01/29 02:11:19;;;;;;;13.67;12.50;;;;;;;-1.24;100.00;92825.88;4950901;29;20225;-75
2023/01/29 02:13:45;;;;;;;15.20;13.63;;;;;;;-1.29;100.00;92842.84;4951128;29;20238;-76
2023/01/29 02:16:10;;;;;;;13.40;12.40;;;;;;;-1.45;100.00;92792.06;4951224;29;20193;-76
2023/01/29 02:18:36;;;;;;;13.40;12.20;;;;;;;-1.23;100.00;92834.34;4951029;29;20249;-76
2023/01/29 02:21:11;;;;;;;13.07;11.97;;;;;;;-1.19;100.00;92843.19;4951391;29;20245;-76
2023/01/29 02:23:36;;;;;;;13.60;12.40;;;;;;;-1.25;100.00;92844.00;4950329;29;20236;-75
2023/01/29 02:26:13;;;;;;;13.73;12.63;;;;;;;-1.24;100.00;92845.56;4951377;29;20447;-76
2023/01/29 02:28:47;;;;;;;15.37;14.10;;;;;;;-1.25;100.00;92855.03;4949579;29;20248;-76
2023/01/29 02:31:19;;;;;;;13.47;12.37;;;;;;;-1.20;100.00;92854.44;4949671;29;20189;-76
2023/01/29 02:34:06;;;;;;;14.17;13.03;;;;;;;-1.24;100.00;92855.78;4950780;29;20678;-76
2023/01/29 02:36:37;;;;;;;13.27;12.07;;;;;;;-1.18;100.00;92862.69;4966215;29;20194;-77
2023/01/29 02:39:35;;;;;;;15.57;14.33;;;;;;;-1.29;100.00;92860.75;4950668;29;20305;-76
2023/01/29 02:42:10;;;;;;;13.07;12.17;;;;;;;-1.16;100.00;92868.38;4950863;29;20205;-76
2023/01/29 02:44:58;;;;;;;14.10;12.90;;;;;;;-1.22;100.00;92864.06;4949831;29;20263;-76
2023/01/29 02:47:38;;;;;;;14.40;13.20;;;;;;;-1.37;100.00;92869.41;4936403;29;20221;-76
2023/01/29 02:50:04;;;;;;;14.80;13.70;;;;;;;-1.19;100.00;92863.66;4954445;29;20223;-76
2023/01/29 02:52:58;;;;;;;13.80;12.60;;;;;;;-1.30;100.00;92869.41;4938347;29;20260;-76
2023/01/29 02:55:33;;;;;;;12.37;11.37;;;;;;;-1.31;100.00;92865.28;4909561;29;20225;-76
2023/01/29 02:58:10;;;;;;;12.33;11.43;;;;;;;-1.32;100.00;92882.41;4953632;29;20212;-76
2023/01/29 03:00:42;;;;;;;15.83;14.70;;;;;;;-1.25;100.00;92867.84;4954534;29;20207;-76
2023/01/29 03:03:30;;;;;;;16.50;13.33;;;;;;;-1.39;100.00;92862.94;4953932;29;20663;-76
2023/01/29 03:06:05;;;;;;;14.87;13.77;;;;;;;-1.26;100.00;92868.81;4954069;29;20213;-76
2023/01/29 03:08:42;;;;;;;11.87;11.17;;;;;;;-1.17;100.00;92874.50;4953764;29;20220;-76
2023/01/29 03:11:12;;;;;;;13.63;12.73;;;;;;;-1.26;100.00;92873.16;4953548;29;20185;-76
2023/01/29 03:14:01;;;;;;;13.10;12.10;;;;;;;-1.15;100.00;92872.53;4953541;29;20257;-76
2023/01/29 03:16:33;;;;;;;13.63;12.67;;;;;;;-1.10;100.00;92877.81;4969604;28;20222;-76
2023/01/29 03:19:04;;;;;;;12.57;11.83;;;;;;;-1.18;100.00;92860.13;4952632;29;20259;-76
2023/01/29 03:33:31;;;;;;;11.70;11.00;;;;;;;-0.87;99.13;92893.53;4895144;29;20254;-76
2023/01/29 03:36:06;;;;;;;12.27;11.57;;;;;;;-0.82;97.91;92873.19;4922155;29;20242;-75
2023/01/29 03:38:31;;;;;;;10.97;10.47;;;;;;;-0.77;96.91;92886.19;4936014;29;20243;-76
2023/01/29 03:41:18;;;;;;;10.63;10.13;;;;;;;-0.75;97.07;92889.34;4953441;29;20189;-75
2023/01/29 03:43:51;;;;;;;10.67;10.10;;;;;;;-0.72;97.37;92888.94;4949002;29;20229;-75
2023/01/29 03:46:27;;;;;;;11.60;10.80;;;;;;;-0.91;96.58;92866.72;4941802;29;20325;-76
2023/01/29 03:49:19;;;;;;;10.73;10.03;;;;;;;-1.02;96.23;92869.91;4937828;29;20249;-75
2023/01/29 03:51:59;;;;;;;10.83;10.23;;;;;;;-0.74;97.20;92884.00;4929444;29;20803;-70
2023/01/29 03:54:46;;;;;;;10.63;10.13;;;;;;;-0.75;98.42;92879.88;4933397;29;20327;-73
2023/01/29 03:57:23;;;;;;;11.93;11.27;;;;;;;-0.99;97.69;92859.25;4938910;29;20179;-72
2023/01/29 04:00:13;;;;;;;10.57;9.97;;;;;;;-0.80;99.34;92873.78;4940523;29;20251;-73
2023/01/29 04:03:01;;;;;;;9.97;9.47;;;;;;;-0.83;99.40;92866.50;4940116;29;20194;-72
2023/01/29 04:05:32;;;;;;;11.10;10.53;;;;;;;-0.87;98.64;92867.91;4941790;29;20205;-73
2023/01/29 04:08:05;;;;;;;9.97;9.40;;;;;;;-0.71;99.56;92872.56;4919105;29;20189;-73
2023/01/29 04:10:35;;;;;;;9.93;9.27;;;;;;;-0.97;98.31;92867.53;4939699;29;20222;-72
2023/01/29 04:13:08;;;;;;;10.43;9.93;;;;;;;-0.86;97.92;92875.41;4939315;29;20250;-73
2023/01/29 04:15:41;;;;;;;10.30;9.73;;;;;;;-0.72;98.70;92881.25;4941530;29;20190;-74
2023/01/29 04:18:07;;;;;;;10.40;9.80;;;;;;;-1.03;97.05;92848.66;4938151;29;20245;-73
2023/01/29 04:20:34;;;;;;;12.13;11.33;;;;;;;-0.97;97.45;92877.78;4940153;29;20200;-73
2023/01/29 04:22:59;;;;;;;10.50;9.80;;;;;;;-0.82;96.89;92896.25;4939585;29;20178;-73
2023/01/29 04:25:31;;;;;;;9.57;9.07;;;;;;;-0.76;97.22;92890.31;4943171;29;20219;-74
2023/01/29 04:28:26;;;;;;;10.70;10.17;;;;;;;-0.93;96.74;92882.31;4938295;29;20279;-72
2023/01/29 04:31:03;;;;;;;11.13;10.63;;;;;;;-0.96;98.61;92889.59;4942030;29;20274;-73
2023/01/29 04:33:35;;;;;;;10.80;10.20;;;;;;;-0.95;97.46;92891.19;4939832;29;20237;-74
2023/01/29 04:36:38;;;;;;;9.73;9.13;;;;;;;-0.86;97.42;92897.66;4941627;29;20200;-72
2023/01/29 04:39:07;;;;;;;11.97;11.27;;;;;;;-0.87;97.58;92893.53;4917383;29;20226;-72
2023/01/29 04:41:51;;;;;;;12.50;11.67;;;;;;;-0.91;97.87;92898.28;4916993;29;20250;-72
2023/01/29 04:44:38;;;;;;;10.13;9.63;;;;;;;-0.90;97.12;92910.09;4937777;29;20762;-72
2023/01/29 04:47:20;;;;;;;10.43;9.93;;;;;;;-0.79;98.14;92900.97;4938631;29;20216;-71
2023/01/29 04:49:57;;;;;;;10.63;10.13;;;;;;;-0.79;98.89;92906.91;4941414;29;20274;-70
2023/01/29 04:52:46;;;;;;;12.17;11.40;;;;;;;-0.85;98.36;92904.34;4940121;29;20271;-72
2023/01/29 04:55:24;;;;;;;10.40;9.80;;;;;;;-0.83;100.00;92902.38;4941216;29;20213;-72
2023/01/29 04:57:56;;;;;;;11.33;10.73;;;;;;;-0.95;97.84;92898.88;4940194;29;20221;-73
2023/01/29 05:00:31;;;;;;;10.47;9.97;;;;;;;-0.88;97.21;92904.75;4941872;29;20177;-73
2023/01/29 05:02:59;;;;;;;10.43;9.93;;;;;;;-0.98;97.10;92887.25;4936772;29;20204;-73
2023/01/29 05:05:25;;;;;;;11.23;10.53;;;;;;;-1.08;96.71;92880.97;4938895;29;20201;-72
2023/01/29 05:07:51;;;;;;;11.50;10.90;;;;;;;-0.96;96.67;92904.97;4916449;29;20202;-72
2023/01/29 05:10:20;;;;;;;11.23;10.63;;;;;;;-1.07;97.49;92900.47;4932947;29;20210;-73
2023/01/29 05:12:59;;;;;;;11.07;10.47;;;;;;;-1.05;99.73;92903.63;4936036;29;20198;-72
2023/01/29 05:15:31;;;;;;;10.50;9.90;;;;;;;-1.09;98.45;92905.03;4939245;29;20252;-72
2023/01/29 05:18:01;;;;;;;10.77;10.07;;;;;;;-1.21;98.19;92891.25;4935886;29;20197;-73
2023/01/29 05:20:32;;;;;;;11.13;10.43;;;;;;;-1.33;98.96;92887.75;4933679;29;20190;-72
2023/01/29 05:22:57;;;;;;;12.07;11.37;;;;;;;-1.04;98.37;92913.66;4935819;29;20232;-73
2023/01/29 05:25:29;;;;;;;10.73;10.13;;;;;;;-1.37;100.00;92859.19;4940422;29;21703;-72
2023/01/29 05:28:15;;;;;;;10.93;10.33;;;;;;;-1.27;98.43;92887.72;4938216;29;20194;-72
2023/01/29 05:30:42;;;;;;;10.47;9.87;;;;;;;-1.19;98.24;92913.13;4937248;29;20175;-72
2023/01/29 05:33:12;;;;;;;11.53;10.83;;;;;;;-1.19;98.64;92917.44;4936928;29;20236;-73
2023/01/29 05:35:37;;;;;;;11.30;10.40;;;;;;;-1.16;98.78;92917.84;4931325;29;20210;-73
2023/01/29 05:38:03;;;;;;;12.13;11.43;;;;;;;-1.23;98.51;92906.03;4940086;29;20229;-79
2023/01/29 05:40:28;;;;;;;11.30;10.60;;;;;;;-1.16;99.86;92894.00;4917357;29;20197;-73
2023/01/29 05:42:54;;;;;;;11.43;10.73;;;;;;;-1.14;99.03;92909.97;4937591;29;20198;-73
2023/01/29 05:45:19;;;;;;;11.23;10.63;;;;;;;-1.32;99.11;92897.78;4939588;29;20222;-72
2023/01/29 05:47:45;;;;;;;10.57;9.97;;;;;;;-1.23;99.52;92923.97;4938149;29;20210;-72
2023/01/29 05:50:12;;;;;;;10.63;10.03;;;;;;;-1.01;99.71;92920.94;4939695;29;20209;-72
2023/01/29 05:52:38;;;;;;;11.47;10.87;;;;;;;-1.10;100.00;92924.72;4938519;29;20249;-71
2023/01/29 05:55:04;;;;;;;12.23;11.43;;;;;;;-1.15;100.00;92903.28;4934960;29;20234;-71
2023/01/29 05:57:29;;;;;;;11.80;11.00;;;;;;;-1.19;100.00;92931.06;4937108;29;20206;-71
2023/01/29 05:59:55;;;;;;;12.43;11.63;;;;;;;-1.27;100.00;92938.16;4937144;29;20227;-72
2023/01/29 06:02:20;;;;;;;12.27;11.47;;;;;;;-1.12;100.00;92943.84;4938909;29;20186;-72
2023/01/29 06:04:46;;;;;;;11.57;10.87;;;;;;;-1.17;100.00;92941.09;4942031;29;20233;-76
2023/01/29 06:07:11;;;;;;;12.87;11.90;;;;;;;-1.18;100.00;92937.75;4937360;29;20273;-73
2023/01/29 06:09:36;;;;;;;12.03;11.33;;;;;;;-1.20;100.00;92944.84;4939363;29;20233;-75
2023/01/29 06:12:05;;;;;;;11.93;11.23;;;;;;;-1.19;100.00;92945.63;4916774;29;20189;-71
2023/01/29 06:14:30;;;;;;;12.00;11.20;;;;;;;-1.24;100.00;92953.09;4936350;29;20248;-74
2023/01/29 06:16:56;;;;;;;12.87;11.93;;;;;;;-1.11;100.00;92953.09;4940439;29;20249;-78
2023/01/29 06:19:21;;;;;;;11.77;11.07;;;;;;;-1.22;100.00;92934.00;4940097;29;20232;-75
2023/01/29 06:21:47;;;;;;;12.50;11.50;;;;;;;-1.12;100.00;92951.53;4942043;29;20213;-76
2023/01/29 06:24:12;;;;;;;11.13;10.23;;;;;;;-0.99;100.00;92966.84;4919663;29;20231;-77
2023/01/29 06:26:38;;;;;;;12.50;11.00;;;;;;;-1.17;100.00;92941.88;4942955;29;20214;-75
2023/01/29 06:29:03;;;;;;;12.43;11.63;;;;;;;-0.95;100.00;92970.63;4919619;29;20222;-75
2023/01/29 06:31:28;;;;;;;11.50;10.77;;;;;;;-1.05;100.00;92977.91;4920009;29;20190;-75
2023/01/29 06:33:54;;;;;;;11.70;10.73;;;;;;;-1.09;100.00;92976.75;4941779;29;20238;-76
2023/01/29 06:36:19;;;;;;;11.77;11.07;;;;;;;-1.10;100.00;92988.75;4942947;29;20205;-75
2023/01/29 06:38:46;;;;;;;13.53;12.53;;;;;;;-1.06;100.00;92976.34;4944518;29;20237;-74
2023/01/29 06:41:14;;;;;;;12.77;11.83;;;;;;;-1.16;100.00;92981.88;4941018;29;20209;-71
2023/01/29 06:43:42;;;;;;;11.83;11.17;;;;;;;-1.00;100.00;92989.16;4939061;29;20238;-73
2023/01/29 06:46:07;;;;;;;13.50;12.60;;;;;;;-0.99;100.00;92992.47;4938846;29;20221;-75
2023/01/29 06:48:33;;;;;;;11.43;10.73;;;;;;;-0.85;100.00;92991.47;4941455;29;20234;-74
2023/01/29 06:51:04;;;;;;;11.97;11.27;;;;;;;-0.81;100.00;92993.44;4941262;29;20197;-72
2023/01/29 06:53:31;;;;;;;12.50;11.60;;;;;;;-0.76;100.00;92985.13;4940506;29;20226;-72
2023/01/29 06:55:57;;;;;;;13.47;12.50;;;;;;;-0.77;100.00;92976.69;4939234;29;20256;-74
2023/01/29 06:58:22;;;;;;;12.43;11.53;;;;;;;-0.72;100.00;92994.81;4940882;29;20229;-75
2023/01/29 07:00:48;;;;;;;14.00;13.00;;;;;;;-0.81;100.00;92979.84;4939291;29;20209;-75
2023/01/29 07:03:13;;;;;;;13.20;12.13;;;;;;;-0.77;100.00;92960.50;4939434;29;20313;-73
2023/01/29 07:05:38;;;;;;;11.17;10.43;;;;;;;-0.51;99.92;92988.63;4938637;29;20221;-74
2023/01/29 07:08:04;;;;;;;12.03;11.20;;;;;;;-0.72;100.00;92988.88;4940007;29;20234;-81
2023/01/29 07:10:30;;;;;;;12.47;11.47;;;;;;;-0.82;100.00;92981.63;4938704;29;20249;-75
2023/01/29 07:12:57;;;;;;;13.00;12.20;;;;;;;-0.56;100.00;93008.97;4943305;29;20205;-76
2023/01/29 07:15:22;;;;;;;11.67;10.87;;;;;;;-0.51;100.00;93001.44;4943949;29;20196;-73
2023/01/29 07:17:56;;;;;;;12.23;11.33;;;;;;;-0.78;100.00;93005.06;4942129;29;20197;-70
2023/01/29 07:20:23;;;;;;;13.17;12.37;;;;;;;-0.74;100.00;93006.22;4943526;29;20242;-71
2023/01/29 07:22:48;;;;;;;12.57;11.77;;;;;;;-0.69;100.00;93016.69;4947945;29;20208;-69
2023/01/29 07:25:13;;;;;;;13.50;12.50;;;;;;;-0.75;100.00;93020.84;4943845;29;20221;-74
2023/01/29 07:27:39;;;;;;;12.70;11.80;;;;;;;-0.69;100.00;93009.78;4944803;29;20261;-70
2023/01/29 07:30:05;;;;;;;13.27;12.30;;;;;;;-0.63;100.00;93024.34;4939099;29;20237;-69
2023/01/29 07:32:30;;;;;;;13.77;12.77;;;;;;;-0.66;100.00;93026.53;4941684;29;20237;-72
2023/01/29 07:34:56;;;;;;;14.67;13.27;;;;;;;-0.51;100.00;93001.44;4939869;29;20222;-72
2023/01/29 07:37:21;;;;;;;11.83;11.03;;;;;;;-0.39;100.00;93010.84;4918368;29;20989;-72
2023/01/29 07:39:46;;;;;;;12.10;11.17;;;;;;;-0.34;100.00;93023.88;4941225;29;20226;-76
2023/01/29 07:42:12;;;;;;;13.77;12.53;;;;;;;-0.26;100.00;93031.34;4918907;29;20198;-76
2023/01/29 07:44:37;;;;;;;13.37;12.47;;;;;;;-0.46;98.67;93006.75;4933212;29;20250;-74
2023/01/29 07:47:03;;;;;;;13.97;12.87;;;;;;;-0.31;99.41;93018.31;4940648;29;20206;-73
2023/01/29 07:49:28;;;;;;;14.30;12.93;;;;;;;-0.03;98.70;93025.72;4919046;29;20230;-71
2023/01/29 07:51:53;;;;;;;13.23;12.23;;;;;;;-0.12;97.65;93024.38;4935651;29;20190;-74
2023/01/29 07:54:19;;;;;;;13.23;12.23;;;;;;;0.06;97.77;93029.63;4934450;29;20257;-71
2023/01/29 07:56:44;;;;;;;15.43;14.13;;;;;;;0.08;97.38;93043.03;4930432;29;20205;-72
2023/01/29 07:59:10;;;;;;;12.97;11.77;;;;;;;-0.05;97.42;93033.59;4931490;29;20241;-73
2023/01/29 08:01:35;;;;;;;14.70;13.40;;;;;;;0.08;98.06;93043.03;4932731;29;20203;-76
2023/01/29 08:04:00;;;;;;;15.67;14.43;;;;;;;0.05;98.13;93043.44;4936451;29;20258;-78
2023/01/29 08:06:26;;;;;;;13.70;12.70;;;;;;;-0.15;98.02;93043.53;4937872;29;20234;-74
2023/01/29 08:08:52;;;;;;;13.90;12.90;;;;;;;-0.13;98.86;93043.34;4937742;29;20218;-78
2023/01/29 08:11:18;;;;;;;14.50;13.40;;;;;;;-0.28;100.00;93035.09;4937909;29;20216;-75
2023/01/29 08:13:44;;;;;;;14.63;13.37;;;;;;;-0.27;100.00;93027.22;4936555;29;20229;-74
2023/01/29 08:16:09;;;;;;;14.03;12.97;;;;;;;-0.30;100.00;93019.94;4930977;29;20213;-77
2023/01/29 08:18:36;;;;;;;12.57;11.47;;;;;;;-0.29;100.00;93036.88;4935093;29;20286;-75
2023/01/29 08:21:03;;;;;;;13.20;12.30;;;;;;;-0.26;100.00;93046.72;4937911;29;20190;-75
2023/01/29 08:23:28;;;;;;;14.83;13.53;;;;;;;-0.49;100.00;93027.66;4933863;29;20239;-75
2023/01/29 08:25:54;;;;;;;14.47;13.37;;;;;;;-0.53;100.00;93044.44;4934963;29;20277;-75
2023/01/29 08:28:19;;;;;;;14.07;13.07;;;;;;;-0.50;100.00;93010.72;4932100;29;20242;-77
2023/01/29 08:30:45;;;;;;;13.90;12.73;;;;;;;-0.40;100.00;93047.75;4938818;29;20201;-74
2023/01/29 08:33:11;;;;;;;15.43;14.17;;;;;;;-0.60;100.00;93029.09;4936590;29;20226;-74
2023/01/29 08:35:37;;;;;;;21.87;18.47;;;;;;;0.27;100.00;93052.41;4940265;29;20245;-74
2023/01/29 08:38:04;;;;;;;13.70;12.67;;;;;;;-0.21;100.00;93058.94;4933696;29;20238;-75
2023/01/29 08:40:31;;;;;;;15.97;14.47;;;;;;;-0.13;100.00;93053.59;4934980;29;20274;-74
2023/01/29 08:43:02;;;;;;;14.93;13.80;;;;;;;-0.08;100.00;93056.34;4935683;29;20373;-73
2023/01/29 08:45:27;;;;;;;14.73;13.53;;;;;;;-0.12;100.00;93057.72;4934148;29;20238;-73
2023/01/29 08:47:52;;;;;;;17.27;15.70;;;;;;;-0.12;100.00;93070.56;4935349;29;20285;-72
2023/01/29 08:50:18;;;;;;;15.03;13.83;;;;;;;-0.24;100.00;93070.41;4915215;29;20186;-74
2023/01/29 08:52:44;;;;;;;15.60;14.27;;;;;;;-0.45;100.00;93077.56;4930726;29;20213;-75
2023/01/29 08:55:10;;;;;;;16.63;14.00;;;;;;;-0.27;99.96;93082.84;4935025;29;20226;-75
2023/01/29 08:57:37;;;;;;;15.97;14.53;;;;;;;-0.27;100.00;93081.06;4937888;29;20217;-74
2023/01/29 09:00:04;;;;;;;19.73;15.70;;;;;;;-0.17;100.00;93083.19;4935113;29;20313;-75
2023/01/29 09:02:30;;;;;;;16.57;14.97;;;;;;;-0.21;99.70;93077.69;4936434;29;20201;-73
2023/01/29 09:04:55;;;;;;;15.47;14.17;;;;;;;-0.35;100.00;93099.25;4934295;29;20320;-73
2023/01/29 09:07:21;;;;;;;16.17;14.13;;;;;;;-0.43;100.00;93081.50;4915633;29;20254;-74
2023/01/29 09:09:46;;;;;;;16.50;14.97;;;;;;;-0.27;100.00;93088.78;4936644;29;20264;-74
2023/01/29 09:12:12;;;;;;;19.53;15.43;;;;;;;-0.20;100.00;93065.63;4934399;29;20260;-75
2023/01/29 09:14:37;;;;;;;21.57;18.10;;;;;;;0.12;100.00;93069.88;4912644;29;20256;-75
2023/01/29 09:17:02;;;;;;;20.50;17.07;;;;;;;0.22;100.00;93082.28;4929126;29;20186;-74
2023/01/29 09:19:28;;;;;;;16.77;15.37;;;;;;;0.02;99.23;93079.78;4932507;29;20860;-72
2023/01/29 09:21:53;;;;;;;17.07;15.40;;;;;;;0.37;99.23;93088.72;4935457;29;20776;-72
2023/01/29 09:24:19;;;;;;;17.03;15.37;;;;;;;0.40;98.38;93087.50;4938704;29;20228;-74
2023/01/29 09:26:44;;;;;;;17.40;15.50;;;;;;;0.35;100.00;93084.75;4936115;29;20232;-71
2023/01/29 09:29:10;;;;;;;15.97;14.67;;;;;;;0.37;97.91;93077.66;4939773;29;20225;-73
2023/01/29 09:31:35;;;;;;;20.37;17.10;;;;;;;0.04;98.31;93070.09;4937063;29;20186;-73
2023/01/29 09:34:00;;;;;;;20.07;17.97;;;;;;;0.17;99.59;93082.91;4937268;29;20835;-72
2023/01/29 09:36:26;;;;;;;18.20;16.10;;;;;;;0.21;99.09;93084.03;4933634;29;20305;-71
2023/01/29 09:38:51;;;;;;;18.10;16.30;;;;;;;0.25;100.00;93084.44;4938492;29;20240;-72
2023/01/29 09:41:44;;;;;;;16.17;14.47;;;;;;;0.39;97.77;93076.44;4934537;29;20214;-71
2023/01/29 09:44:23;;;;;;;18.80;16.97;;;;;;;0.36;100.00;93076.09;4931139;29;20248;-72
2023/01/29 09:46:51;;;;;;;15.87;14.50;;;;;;;0.04;98.56;93067.53;4938892;29;22155;-73
2023/01/29 09:49:33;;;;;;;19.67;17.03;;;;;;;-0.22;99.21;93052.25;4937653;29;20263;-75
2023/01/29 09:52:04;;;;;;;16.67;15.20;;;;;;;0.05;99.29;93065.78;4932948;29;20190;-75
2023/01/29 09:54:38;;;;;;;17.93;15.63;;;;;;;0.31;98.04;93075.91;4934737;29;20233;-75
2023/01/29 09:57:09;;;;;;;24.17;19.33;;;;;;;0.23;97.90;93074.38;4936688;29;20211;-74
2023/01/29 09:59:34;;;;;;;19.23;17.23;;;;;;;0.43;97.95;93071.69;4939241;29;20233;-69
2023/01/29 10:02:06;;;;;;;19.43;17.07;;;;;;;0.28;97.33;93063.47;4938505;29;20185;-72
2023/01/29 10:04:53;;;;;;;18.70;16.57;;;;;;;0.25;97.94;93067.22;4941387;29;20233;-74
2023/01/29 10:07:21;;;;;;;18.17;16.13;;;;;;;0.27;97.19;93064.47;4920949;29;20221;-70
2023/01/29 10:10:02;;;;;;;18.07;16.30;;;;;;;0.19;97.36;93059.59;4922459;29;20234;-72
2023/01/29 10:12:54;;;;;;;17.90;13.50;;;;;;;-0.06;98.88;93052.56;4938565;29;20229;-72
2023/01/29 10:15:46;;;;;;;15.57;14.27;;;;;;;0.16;100.00;93055.63;4937379;29;20221;-73
2023/01/29 10:18:35;;;;;;;16.50;15.10;;;;;;;0.17;99.65;93059.78;4938423;29;20233;-70
2023/01/29 10:21:25;;;;;;;18.77;16.93;;;;;;;0.44;98.02;93058.66;4938899;29;20181;-69
2023/01/29 10:24:12;;;;;;;19.37;17.30;;;;;;;0.13;98.59;93053.47;4939021;29;20318;-68
2023/01/29 10:26:39;;;;;;;14.83;13.33;;;;;;;0.17;98.98;93052.09;4937957;29;20236;-72
2023/01/29 10:29:06;;;;;;;17.00;15.50;;;;;;;0.13;98.60;93040.66;4941106;29;20233;-67
2023/01/29 10:31:38;;;;;;;15.43;14.10;;;;;;;0.19;98.97;93046.75;4940157;29;20201;-71
2023/01/29 10:34:13;;;;;;;17.63;16.07;;;;;;;0.04;99.91;93044.44;4936554;29;20238;-67
2023/01/29 10:36:47;;;;;;;16.33;14.70;;;;;;;-0.06;100.00;93044.06;4938781;29;20229;-67
2023/01/29 10:39:21;;;;;;;18.77;16.87;;;;;;;-0.01;100.00;93036.56;4935430;29;20296;-68
2023/01/29 10:42:04;;;;;;;17.67;15.50;;;;;;;0.04;100.00;93036.75;4938938;29;20189;-68
2023/01/29 10:44:50;;;;;;;18.67;16.07;;;;;;;-0.32;100.00;93033.94;4933564;29;20233;-69
2023/01/29 10:47:34;;;;;;;18.80;17.07;;;;;;;-0.34;100.00;93033.31;4916953;29;20237;-71
2023/01/29 10:50:44;;;;;;;16.33;14.97;;;;;;;-0.27;100.00;93041.81;4932727;29;20245;-77
2023/01/29 10:53:16;;;;;;;21.63;19.47;;;;;;;0.11;100.00;93032.34;4917882;29;20257;-77
2023/01/29 10:55:53;;;;;;;17.57;15.80;;;;;;;0.01;100.00;93032.03;4931706;29;20214;-77
2023/01/29 10:58:54;;;;;;;19.50;16.13;;;;;;;-0.09;100.00;93029.09;4931016;29;20862;-79
2023/01/29 11:01:19;;;;;;;20.80;17.43;;;;;;;-0.13;100.00;93030.50;4916915;29;20202;-77
2023/01/29 11:03:44;;;;;;;26.47;19.50;;;;;;;0.13;100.00;93029.56;4932232;29;20249;-77
2023/01/29 11:06:19;;;;;;;21.50;19.03;;;;;;;0.08;100.00;93032.00;4932888;29;20229;-78
2023/01/29 11:09:18;;;;;;;18.87;16.87;;;;;;;-0.31;100.00;93030.34;4932227;29;20245;-78
2023/01/29 11:11:52;;;;;;;22.43;17.13;;;;;;;-0.28;100.00;93022.28;4936358;29;20264;-76
2023/01/29 11:14:27;;;;;;;20.47;18.20;;;;;;;-0.24;100.00;93023.44;4934782;29;20233;-78
2023/01/29 11:16:53;;;;;;;20.33;18.23;;;;;;;-0.16;100.00;93021.41;4934517;29;20202;-77
2023/01/29 11:19:36;;;;;;;19.97;17.87;;;;;;;0.14;100.00;93031.19;4934934;29;20250;-78
2023/01/29 11:22:03;;;;;;;29.00;19.20;;;;;;;0.07;100.00;93013.25;4935616;29;20194;-78
2023/01/29 11:24:29;;;;;;;21.17;16.57;;;;;;;0.39;100.00;93021.75;4934092;29;20245;-78
2023/01/29 11:26:57;;;;;;;25.13;22.63;;;;;;;0.15;99.37;93013.00;4934533;29;20217;-77
2023/01/29 11:29:28;;;;;;;22.33;19.17;;;;;;;0.20;99.12;93010.59;4935178;29;20225;-78
2023/01/29 11:31:56;;;;;;;23.60;19.03;;;;;;;0.31;99.63;93007.38;4934358;29;20213;-78
2023/01/29 11:34:24;;;;;;;19.17;17.23;;;;;;;0.11;99.29;92996.41;4933386;29;20233;-78
2023/01/29 11:37:01;;;;;;;23.50;18.47;;;;;;;0.16;99.39;92994.03;4936132;29;20198;-77
2023/01/29 11:39:29;;;;;;;18.60;16.70;;;;;;;0.32;99.48;92995.31;4934110;29;20229;-78
2023/01/29 11:42:07;;;;;;;19.57;17.07;;;;;;;0.09;99.87;92990.72;4934661;29;20222;-77
2023/01/29 11:44:39;;;;;;;21.80;17.10;;;;;;;0.37;99.02;92986.00;4934163;29;20225;-77
2023/01/29 11:47:23;;;;;;;19.67;16.87;;;;;;;0.90;96.94;92988.97;4934905;29;20218;-77
2023/01/29 11:49:54;;;;;;;19.67;16.13;;;;;;;0.95;96.10;92987.31;4934203;29;20261;-79
2023/01/29 11:52:42;;;;;;;22.40;17.93;;;;;;;0.91;96.43;92964.81;4934670;29;20194;-76
2023/01/29 11:55:20;;;;;;;21.77;15.00;;;;;;;0.77;95.06;92981.34;4934199;29;20240;-77
2023/01/29 11:57:49;;;;;;;18.40;16.43;;;;;;;0.53;95.07;92964.19;4934172;29;20260;-77